sensor_id;sensor_type;location;lat;lon;timestamp;pressure;altitude;pressure_sealevel;temperature;humidity
70728;BME280;58314;47.722;17.652;2022-07-04T00:02:21;100435.16;;;19.90;75.45
70728;BME280;58314;47.722;17.652;2022-07-04T00:05:22;100431.28;;;19.83;76.36
70728;BME280;58314;47.722;17.652;2022-07-04T00:08:22;100439.22;;;19.85;76.49
70728;BME280;58314;47.722;17.652;2022-07-04T00:11:23;100445.44;;;20.06;75.59
70728;BME280;58314;47.722;17.652;2022-07-04T00:14:24;100438.03;;;19.99;75.04
70728;BME280;58314;47.722;17.652;2022-07-04T00:17:24;100438.63;;;20.02;74.96
70728;BME280;58314;47.722;17.652;2022-07-04T00:20:25;100434.75;;;19.74;76.75
70728;BME280;58314;47.722;17.652;2022-07-04T00:23:26;100444.69;;;19.51;76.73
70728;BME280;58314;47.722;17.652;2022-07-04T00:26:26;100439.13;;;19.43;77.51
70728;BME280;58314;47.722;17.652;2022-07-04T00:29:28;100441.59;;;19.34;78.65
70728;BME280;58314;47.722;17.652;2022-07-04T00:32:29;100440.19;;;19.51;76.76
70728;BME280;58314;47.722;17.652;2022-07-04T00:35:30;100440.69;;;19.45;77.02
70728;BME280;58314;47.722;17.652;2022-07-04T00:38:31;100442.34;;;19.57;76.38
70728;BME280;58314;47.722;17.652;2022-07-04T00:41:31;100447.03;;;19.44;77.26
70728;BME280;58314;47.722;17.652;2022-07-04T00:44:32;100447.19;;;19.43;78.25
70728;BME280;58314;47.722;17.652;2022-07-04T00:47:36;100455.41;;;19.51;77.39
70728;BME280;58314;47.722;17.652;2022-07-04T00:50:37;100451.25;;;19.26;79.28
70728;BME280;58314;47.722;17.652;2022-07-04T00:53:38;100452.38;;;19.55;77.35
70728;BME280;58314;47.722;17.652;2022-07-04T00:56:41;100456.13;;;19.64;76.09
70728;BME280;58314;47.722;17.652;2022-07-04T00:59:42;100457.13;;;19.52;76.71
70728;BME280;58314;47.722;17.652;2022-07-04T01:02:42;100460.53;;;19.65;76.66
70728;BME280;58314;47.722;17.652;2022-07-04T01:05:44;100459.53;;;19.66;75.51
70728;BME280;58314;47.722;17.652;2022-07-04T01:08:45;100453.06;;;19.69;74.91
70728;BME280;58314;47.722;17.652;2022-07-04T01:11:49;100455.00;;;19.67;73.96
70728;BME280;58314;47.722;17.652;2022-07-04T01:14:50;100449.44;;;19.59;74.50
70728;BME280;58314;47.722;17.652;2022-07-04T01:17:51;100444.91;;;19.59;74.35
70728;BME280;58314;47.722;17.652;2022-07-04T01:20:52;100440.66;;;19.56;75.01
70728;BME280;58314;47.722;17.652;2022-07-04T01:23:52;100443.94;;;19.60;74.74
70728;BME280;58314;47.722;17.652;2022-07-04T01:26:53;100443.41;;;19.66;74.21
70728;BME280;58314;47.722;17.652;2022-07-04T01:29:54;100440.94;;;19.42;76.77
70728;BME280;58314;47.722;17.652;2022-07-04T01:32:55;100445.84;;;19.37;75.59
70728;BME280;58314;47.722;17.652;2022-07-04T01:35:56;100447.06;;;19.33;76.17
70728;BME280;58314;47.722;17.652;2022-07-04T01:38:56;100446.88;;;19.13;77.57
70728;BME280;58314;47.722;17.652;2022-07-04T01:41:59;100446.28;;;18.76;79.08
70728;BME280;58314;47.722;17.652;2022-07-04T01:44:59;100435.22;;;18.92;79.36
70728;BME280;58314;47.722;17.652;2022-07-04T01:48:01;100433.88;;;18.86;80.02
70728;BME280;58314;47.722;17.652;2022-07-04T01:51:01;100439.09;;;18.76;79.48
70728;BME280;58314;47.722;17.652;2022-07-04T01:54:02;100444.72;;;18.73;79.27
70728;BME280;58314;47.722;17.652;2022-07-04T01:57:03;100444.94;;;18.59;79.95
70728;BME280;58314;47.722;17.652;2022-07-04T02:00:06;100443.59;;;18.53;79.93
70728;BME280;58314;47.722;17.652;2022-07-04T02:03:25;100442.25;;;18.59;80.11
70728;BME280;58314;47.722;17.652;2022-07-04T02:06:26;100440.44;;;18.48;79.85
70728;BME280;58314;47.722;17.652;2022-07-04T02:09:27;100435.91;;;18.49;79.67
70728;BME280;58314;47.722;17.652;2022-07-04T02:12:28;100435.19;;;18.35;79.95
70728;BME280;58314;47.722;17.652;2022-07-04T02:15:47;100447.13;;;18.42;80.11
70728;BME280;58314;47.722;17.652;2022-07-04T02:18:48;100446.91;;;18.46;80.27
70728;BME280;58314;47.722;17.652;2022-07-04T02:21:48;100443.22;;;18.47;79.18
70728;BME280;58314;47.722;17.652;2022-07-04T02:24:49;100444.44;;;18.31;80.70
70728;BME280;58314;47.722;17.652;2022-07-04T02:27:50;100440.69;;;18.34;79.82
70728;BME280;58314;47.722;17.652;2022-07-04T02:30:51;100446.25;;;18.31;80.16
70728;BME280;58314;47.722;17.652;2022-07-04T02:33:51;100436.28;;;18.21;80.10
70728;BME280;58314;47.722;17.652;2022-07-04T02:36:52;100444.03;;;18.02;82.05
70728;BME280;58314;47.722;17.652;2022-07-04T02:39:53;100446.56;;;17.92;82.84
70728;BME280;58314;47.722;17.652;2022-07-04T02:42:53;100446.13;;;18.10;82.20
70728;BME280;58314;47.722;17.652;2022-07-04T02:45:54;100450.06;;;17.93;84.28
70728;BME280;58314;47.722;17.652;2022-07-04T02:48:54;100447.84;;;18.11;84.21
70728;BME280;58314;47.722;17.652;2022-07-04T02:51:55;100448.34;;;18.16;83.50
70728;BME280;58314;47.722;17.652;2022-07-04T02:54:56;100448.06;;;18.19;83.63
70728;BME280;58314;47.722;17.652;2022-07-04T02:57:56;100439.53;;;18.02;84.48
70728;BME280;58314;47.722;17.652;2022-07-04T03:00:57;100435.78;;;18.16;83.32
70728;BME280;58314;47.722;17.652;2022-07-04T03:03:58;100440.75;;;18.21;83.64
70728;BME280;58314;47.722;17.652;2022-07-04T03:06:59;100438.81;;;18.12;84.26
70728;BME280;58314;47.722;17.652;2022-07-04T03:10:00;100436.63;;;18.05;85.01
70728;BME280;58314;47.722;17.652;2022-07-04T03:13:01;100437.25;;;18.09;84.44
70728;BME280;58314;47.722;17.652;2022-07-04T03:16:01;100434.69;;;18.19;83.77
70728;BME280;58314;47.722;17.652;2022-07-04T03:19:02;100427.47;;;18.08;84.71
70728;BME280;58314;47.722;17.652;2022-07-04T03:22:06;100436.28;;;18.21;83.72
70728;BME280;58314;47.722;17.652;2022-07-04T03:25:07;100433.78;;;18.07;83.92
70728;BME280;58314;47.722;17.652;2022-07-04T03:28:08;100435.63;;;18.06;84.37
70728;BME280;58314;47.722;17.652;2022-07-04T03:31:08;100438.97;;;18.21;83.06
70728;BME280;58314;47.722;17.652;2022-07-04T03:34:09;100439.56;;;18.36;82.54
70728;BME280;58314;47.722;17.652;2022-07-04T03:37:10;100435.44;;;18.32;82.65
70728;BME280;58314;47.722;17.652;2022-07-04T03:40:11;100433.22;;;18.26;83.36
70728;BME280;58314;47.722;17.652;2022-07-04T03:43:11;100447.72;;;18.35;83.12
70728;BME280;58314;47.722;17.652;2022-07-04T03:46:12;100442.00;;;18.39;83.37
70728;BME280;58314;47.722;17.652;2022-07-04T03:49:13;100443.34;;;18.34;83.64
70728;BME280;58314;47.722;17.652;2022-07-04T03:52:13;100443.13;;;18.37;84.37
70728;BME280;58314;47.722;17.652;2022-07-04T03:55:14;100452.72;;;18.39;85.71
70728;BME280;58314;47.722;17.652;2022-07-04T03:58:15;100449.19;;;18.50;84.56
70728;BME280;58314;47.722;17.652;2022-07-04T04:01:19;100454.31;;;18.53;85.43
70728;BME280;58314;47.722;17.652;2022-07-04T04:04:20;100454.94;;;18.57;85.00
70728;BME280;58314;47.722;17.652;2022-07-04T04:07:39;100465.88;;;18.54;85.18
70728;BME280;58314;47.722;17.652;2022-07-04T04:10:39;100461.03;;;18.70;84.62
70728;BME280;58314;47.722;17.652;2022-07-04T04:13:40;100467.59;;;18.66;85.04
70728;BME280;58314;47.722;17.652;2022-07-04T04:16:41;100470.06;;;18.80;83.20
70728;BME280;58314;47.722;17.652;2022-07-04T04:19:43;100459.81;;;18.97;83.01
70728;BME280;58314;47.722;17.652;2022-07-04T04:22:43;100456.38;;;19.17;83.32
70728;BME280;58314;47.722;17.652;2022-07-04T04:25:44;100461.34;;;19.33;81.63
70728;BME280;58314;47.722;17.652;2022-07-04T04:28:45;100466.44;;;19.48;80.58
70728;BME280;58314;47.722;17.652;2022-07-04T04:31:46;100466.84;;;19.64;80.10
70728;BME280;58314;47.722;17.652;2022-07-04T04:34:46;100475.97;;;19.73;78.28
70728;BME280;58314;47.722;17.652;2022-07-04T04:37:47;100470.72;;;19.83;77.40
70728;BME280;58314;47.722;17.652;2022-07-04T04:40:47;100479.28;;;19.98;77.07
70728;BME280;58314;47.722;17.652;2022-07-04T04:43:48;100486.44;;;20.08;76.39
70728;BME280;58314;47.722;17.652;2022-07-04T04:46:49;100485.56;;;20.19;76.25
70728;BME280;58314;47.722;17.652;2022-07-04T04:49:50;100495.50;;;20.28;75.79
70728;BME280;58314;47.722;17.652;2022-07-04T04:52:53;100499.09;;;20.39;74.67
70728;BME280;58314;47.722;17.652;2022-07-04T04:55:54;100489.25;;;20.49;74.63
70728;BME280;58314;47.722;17.652;2022-07-04T04:58:55;100496.78;;;20.55;75.39
70728;BME280;58314;47.722;17.652;2022-07-04T05:01:56;100490.16;;;20.59;75.20
70728;BME280;58314;47.722;17.652;2022-07-04T05:04:57;100491.94;;;20.70;74.29
70728;BME280;58314;47.722;17.652;2022-07-04T05:07:58;100494.69;;;20.80;74.65
70728;BME280;58314;47.722;17.652;2022-07-04T05:10:58;100492.28;;;20.86;73.41
70728;BME280;58314;47.722;17.652;2022-07-04T05:13:59;100494.56;;;20.91;75.80
70728;BME280;58314;47.722;17.652;2022-07-04T05:17:00;100502.56;;;21.02;76.82
70728;BME280;58314;47.722;17.652;2022-07-04T05:20:01;100498.06;;;21.13;76.81
70728;BME280;58314;47.722;17.652;2022-07-04T05:23:02;100501.78;;;21.21;76.22
70728;BME280;58314;47.722;17.652;2022-07-04T05:26:02;100491.44;;;21.27;76.24
70728;BME280;58314;47.722;17.652;2022-07-04T05:29:03;100499.66;;;21.35;75.50
70728;BME280;58314;47.722;17.652;2022-07-04T05:32:05;100485.38;;;21.44;75.65
70728;BME280;58314;47.722;17.652;2022-07-04T05:35:07;100486.13;;;21.56;74.82
70728;BME280;58314;47.722;17.652;2022-07-04T05:38:08;100490.53;;;21.76;73.72
70728;BME280;58314;47.722;17.652;2022-07-04T05:41:08;100493.81;;;21.90;72.42
70728;BME280;58314;47.722;17.652;2022-07-04T05:44:09;100495.91;;;22.06;72.42
70728;BME280;58314;47.722;17.652;2022-07-04T05:47:10;100495.75;;;22.27;69.62
70728;BME280;58314;47.722;17.652;2022-07-04T05:50:11;100495.63;;;22.38;68.73
70728;BME280;58314;47.722;17.652;2022-07-04T05:53:12;100502.25;;;22.53;69.92
70728;BME280;58314;47.722;17.652;2022-07-04T05:56:13;100509.44;;;22.72;67.19
70728;BME280;58314;47.722;17.652;2022-07-04T05:59:13;100508.41;;;22.83;68.38
70728;BME280;58314;47.722;17.652;2022-07-04T06:02:14;100506.03;;;23.08;69.60
70728;BME280;58314;47.722;17.652;2022-07-04T06:05:15;100509.81;;;23.25;68.05
70728;BME280;58314;47.722;17.652;2022-07-04T06:08:16;100515.28;;;23.33;67.49
70728;BME280;58314;47.722;17.652;2022-07-04T06:11:17;100506.44;;;23.41;65.59
70728;BME280;58314;47.722;17.652;2022-07-04T06:14:18;100500.88;;;23.42;66.38
70728;BME280;58314;47.722;17.652;2022-07-04T06:17:44;100499.50;;;23.56;64.16
70728;BME280;58314;47.722;17.652;2022-07-04T06:20:44;100503.69;;;23.68;63.89
70728;BME280;58314;47.722;17.652;2022-07-04T06:23:45;100501.53;;;23.72;66.21
70728;BME280;58314;47.722;17.652;2022-07-04T06:26:46;100508.72;;;23.81;65.40
70728;BME280;58314;47.722;17.652;2022-07-04T06:29:46;100507.16;;;23.79;65.09
70728;BME280;58314;47.722;17.652;2022-07-04T06:32:49;100506.78;;;23.74;65.81
70728;BME280;58314;47.722;17.652;2022-07-04T06:35:50;100511.16;;;23.75;64.53
70728;BME280;58314;47.722;17.652;2022-07-04T06:38:56;100509.66;;;23.90;64.65
70728;BME280;58314;47.722;17.652;2022-07-04T06:41:57;100516.28;;;24.14;64.19
70728;BME280;58314;47.722;17.652;2022-07-04T06:44:58;100520.19;;;24.37;62.92
70728;BME280;58314;47.722;17.652;2022-07-04T06:47:59;100522.16;;;24.53;58.76
70728;BME280;58314;47.722;17.652;2022-07-04T06:51:00;100526.31;;;24.66;58.94
70728;BME280;58314;47.722;17.652;2022-07-04T06:54:01;100515.56;;;24.82;58.80
70728;BME280;58314;47.722;17.652;2022-07-04T06:57:01;100512.09;;;24.98;57.99
70728;BME280;58314;47.722;17.652;2022-07-04T07:00:07;100514.06;;;25.14;58.09
70728;BME280;58314;47.722;17.652;2022-07-04T07:03:08;100525.81;;;25.31;57.12
70728;BME280;58314;47.722;17.652;2022-07-04T07:06:09;100516.22;;;25.53;53.38
70728;BME280;58314;47.722;17.652;2022-07-04T07:09:09;100516.75;;;25.65;53.78
70728;BME280;58314;47.722;17.652;2022-07-04T07:12:10;100512.88;;;25.75;51.70
70728;BME280;58314;47.722;17.652;2022-07-04T07:15:11;100510.38;;;25.90;51.14
70728;BME280;58314;47.722;17.652;2022-07-04T07:18:12;100504.44;;;26.03;51.04
70728;BME280;58314;47.722;17.652;2022-07-04T07:21:12;100506.34;;;26.11;49.51
70728;BME280;58314;47.722;17.652;2022-07-04T07:24:13;100502.59;;;26.28;49.85
70728;BME280;58314;47.722;17.652;2022-07-04T07:27:14;100494.94;;;26.40;51.35
70728;BME280;58314;47.722;17.652;2022-07-04T07:30:15;100502.22;;;26.48;51.61
70728;BME280;58314;47.722;17.652;2022-07-04T07:33:15;100500.84;;;26.60;51.00
70728;BME280;58314;47.722;17.652;2022-07-04T07:36:16;100504.75;;;26.66;50.01
70728;BME280;58314;47.722;17.652;2022-07-04T07:39:17;100501.00;;;26.75;49.40
70728;BME280;58314;47.722;17.652;2022-07-04T07:42:18;100514.38;;;26.85;50.26
70728;BME280;58314;47.722;17.652;2022-07-04T07:45:18;100499.47;;;26.81;50.75
70728;BME280;58314;47.722;17.652;2022-07-04T07:48:19;100508.75;;;26.95;51.15
70728;BME280;58314;47.722;17.652;2022-07-04T07:51:20;100508.28;;;27.22;51.02
70728;BME280;58314;47.722;17.652;2022-07-04T07:58:36;100506.91;;;27.58;50.08
70728;BME280;58314;47.722;17.652;2022-07-04T08:23:38;100510.03;;;28.39;43.69
70728;BME280;58314;47.722;17.652;2022-07-04T08:26:38;100512.53;;;28.64;44.00
70728;BME280;58314;47.722;17.652;2022-07-04T08:29:39;100504.75;;;28.61;44.05
70728;BME280;58314;47.722;17.652;2022-07-04T08:32:40;100501.84;;;28.62;40.53
70728;BME280;58314;47.722;17.652;2022-07-04T08:38:58;100497.97;;;29.16;41.95
70728;BME280;58314;47.722;17.652;2022-07-04T08:42:03;100497.69;;;29.26;41.45
70728;BME280;58314;47.722;17.652;2022-07-04T08:45:06;100496.34;;;29.37;41.19
70728;BME280;58314;47.722;17.652;2022-07-04T08:48:09;100504.34;;;29.23;39.55
70728;BME280;58314;47.722;17.652;2022-07-04T08:51:16;100508.59;;;29.26;38.99
70728;BME280;58314;47.722;17.652;2022-07-04T08:54:17;100499.59;;;29.47;37.97
70728;BME280;58314;47.722;17.652;2022-07-04T08:57:36;100507.16;;;29.66;38.70
70728;BME280;58314;47.722;17.652;2022-07-04T09:01:02;100518.75;;;29.90;40.06
70728;BME280;58314;47.722;17.652;2022-07-04T09:04:04;100516.16;;;30.03;39.43
70728;BME280;58314;47.722;17.652;2022-07-04T09:07:04;100508.56;;;29.99;36.72
70728;BME280;58314;47.722;17.652;2022-07-04T09:10:06;100510.41;;;30.20;38.63
70728;BME280;58314;47.722;17.652;2022-07-04T09:13:09;100501.69;;;30.31;36.98
70728;BME280;58314;47.722;17.652;2022-07-04T09:16:10;100507.69;;;30.20;36.86
70728;BME280;58314;47.722;17.652;2022-07-04T09:19:21;100501.41;;;30.48;36.90
70728;BME280;58314;47.722;17.652;2022-07-04T09:22:26;100497.09;;;30.60;37.50
70728;BME280;58314;47.722;17.652;2022-07-04T09:25:27;100496.06;;;30.61;36.85
70728;BME280;58314;47.722;17.652;2022-07-04T09:28:28;100506.75;;;30.56;38.11
70728;BME280;58314;47.722;17.652;2022-07-04T09:31:30;100497.91;;;30.54;35.90
70728;BME280;58314;47.722;17.652;2022-07-04T09:34:31;100495.66;;;30.64;35.51
70728;BME280;58314;47.722;17.652;2022-07-04T09:37:34;100486.31;;;31.22;36.90
70728;BME280;58314;47.722;17.652;2022-07-04T09:40:38;100482.69;;;31.21;35.01
70728;BME280;58314;47.722;17.652;2022-07-04T09:44:02;100474.47;;;31.76;34.65
70728;BME280;58314;47.722;17.652;2022-07-04T09:50:25;100480.03;;;31.41;34.79
70728;BME280;58314;47.722;17.652;2022-07-04T09:53:27;100483.91;;;31.80;33.29
70728;BME280;58314;47.722;17.652;2022-07-04T09:56:49;100473.03;;;32.07;33.97
70728;BME280;58314;47.722;17.652;2022-07-04T09:59:51;100467.09;;;32.50;33.01
70728;BME280;58314;47.722;17.652;2022-07-04T10:02:53;100486.88;;;32.52;33.04
70728;BME280;58314;47.722;17.652;2022-07-04T10:06:13;100480.50;;;32.85;32.71
70728;BME280;58314;47.722;17.652;2022-07-04T10:09:18;100472.97;;;31.67;32.60
70728;BME280;58314;47.722;17.652;2022-07-04T10:12:28;100473.84;;;31.81;33.35
70728;BME280;58314;47.722;17.652;2022-07-04T10:15:29;100462.84;;;32.54;33.39
70728;BME280;58314;47.722;17.652;2022-07-04T10:18:30;100459.94;;;32.42;32.11
70728;BME280;58314;47.722;17.652;2022-07-04T10:21:31;100455.22;;;32.83;33.65
70728;BME280;58314;47.722;17.652;2022-07-04T10:24:32;100464.88;;;33.44;31.76
70728;BME280;58314;47.722;17.652;2022-07-04T10:27:34;100459.75;;;33.09;30.66
70728;BME280;58314;47.722;17.652;2022-07-04T10:30:36;100458.13;;;33.79;29.91
70728;BME280;58314;47.722;17.652;2022-07-04T10:33:37;100455.09;;;33.55;30.19
70728;BME280;58314;47.722;17.652;2022-07-04T10:36:38;100459.44;;;33.63;30.56
70728;BME280;58314;47.722;17.652;2022-07-04T10:39:40;100441.44;;;33.80;28.67
70728;BME280;58314;47.722;17.652;2022-07-04T10:42:41;100438.38;;;33.63;29.53
70728;BME280;58314;47.722;17.652;2022-07-04T10:45:41;100436.16;;;33.79;30.24
70728;BME280;58314;47.722;17.652;2022-07-04T10:52:13;100433.31;;;35.28;27.74
70728;BME280;58314;47.722;17.652;2022-07-04T10:55:14;100428.38;;;35.60;27.85
70728;BME280;58314;47.722;17.652;2022-07-04T10:58:38;100418.50;;;35.95;29.25
70728;BME280;58314;47.722;17.652;2022-07-04T11:01:44;100418.50;;;36.07;27.40
70728;BME280;58314;47.722;17.652;2022-07-04T11:10:47;100396.16;;;38.60;24.08
70728;BME280;58314;47.722;17.652;2022-07-04T11:17:37;100390.59;;;39.59;23.21
70728;BME280;58314;47.722;17.652;2022-07-04T11:20:42;100388.44;;;39.07;23.23
70728;BME280;58314;47.722;17.652;2022-07-04T11:23:49;100388.56;;;40.82;22.20
70728;BME280;58314;47.722;17.652;2022-07-04T11:26:50;100384.94;;;38.50;23.81
70728;BME280;58314;47.722;17.652;2022-07-04T11:29:51;100385.03;;;37.31;25.22
70728;BME280;58314;47.722;17.652;2022-07-04T11:32:52;100382.94;;;36.93;26.20
70728;BME280;58314;47.722;17.652;2022-07-04T11:36:07;100384.75;;;35.99;27.02
70728;BME280;58314;47.722;17.652;2022-07-04T11:39:10;100391.41;;;35.68;27.45
70728;BME280;58314;47.722;17.652;2022-07-04T11:42:12;100397.81;;;37.21;25.39
70728;BME280;58314;47.722;17.652;2022-07-04T11:45:31;100391.97;;;36.77;27.05
70728;BME280;58314;47.722;17.652;2022-07-04T11:48:31;100386.28;;;38.65;23.15
70728;BME280;58314;47.722;17.652;2022-07-04T11:51:32;100393.75;;;38.47;23.69
70728;BME280;58314;47.722;17.652;2022-07-04T11:54:32;100389.69;;;39.48;21.60
70728;BME280;58314;47.722;17.652;2022-07-04T11:57:44;100391.50;;;40.55;21.88
70728;BME280;58314;47.722;17.652;2022-07-04T12:00:45;100405.97;;;40.67;20.85
70728;BME280;58314;47.722;17.652;2022-07-04T12:03:46;100398.78;;;38.94;22.61
70728;BME280;58314;47.722;17.652;2022-07-04T12:06:48;100405.19;;;39.87;21.90
70728;BME280;58314;47.722;17.652;2022-07-04T12:09:49;100408.94;;;40.03;21.75
70728;BME280;58314;47.722;17.652;2022-07-04T12:13:02;100401.00;;;38.31;24.09
70728;BME280;58314;47.722;17.652;2022-07-04T12:16:11;100398.38;;;38.02;24.66
70728;BME280;58314;47.722;17.652;2022-07-04T12:19:12;100408.13;;;36.85;29.15
70728;BME280;58314;47.722;17.652;2022-07-04T12:22:13;100405.31;;;36.56;29.72
70728;BME280;58314;47.722;17.652;2022-07-04T12:25:35;100403.19;;;36.11;30.99
70728;BME280;58314;47.722;17.652;2022-07-04T12:28:41;100408.47;;;36.24;30.27
70728;BME280;58314;47.722;17.652;2022-07-04T12:31:43;100412.13;;;35.29;31.72
70728;BME280;58314;47.722;17.652;2022-07-04T12:34:45;100404.63;;;35.36;32.08
70728;BME280;58314;47.722;17.652;2022-07-04T12:44:08;100404.13;;;34.78;32.92
70728;BME280;58314;47.722;17.652;2022-07-04T12:47:10;100400.16;;;34.74;32.45
70728;BME280;58314;47.722;17.652;2022-07-04T12:50:11;100406.81;;;34.48;31.62
70728;BME280;58314;47.722;17.652;2022-07-04T12:53:11;100408.91;;;34.02;33.05
70728;BME280;58314;47.722;17.652;2022-07-04T12:56:32;100409.75;;;34.28;32.79
70728;BME280;58314;47.722;17.652;2022-07-04T12:59:33;100415.78;;;33.93;33.04
70728;BME280;58314;47.722;17.652;2022-07-04T13:02:34;100411.63;;;33.84;34.23
70728;BME280;58314;47.722;17.652;2022-07-04T13:05:36;100419.28;;;33.43;34.17
70728;BME280;58314;47.722;17.652;2022-07-04T13:08:37;100414.97;;;33.29;33.89
70728;BME280;58314;47.722;17.652;2022-07-04T13:11:38;100420.84;;;33.32;35.56
70728;BME280;58314;47.722;17.652;2022-07-04T13:14:58;100423.16;;;32.90;35.29
70728;BME280;58314;47.722;17.652;2022-07-04T13:17:59;100424.59;;;32.27;36.55
70728;BME280;58314;47.722;17.652;2022-07-04T13:21:00;100421.63;;;32.29;35.96
70728;BME280;58314;47.722;17.652;2022-07-04T13:24:01;100425.44;;;32.21;36.85
70728;BME280;58314;47.722;17.652;2022-07-04T13:27:02;100425.41;;;32.41;36.85
70728;BME280;58314;47.722;17.652;2022-07-04T13:30:03;100412.13;;;32.38;38.26
70728;BME280;58314;47.722;17.652;2022-07-04T13:33:04;100422.69;;;32.01;39.03
70728;BME280;58314;47.722;17.652;2022-07-04T13:36:04;100420.28;;;32.58;38.10
70728;BME280;58314;47.722;17.652;2022-07-04T13:39:05;100418.66;;;33.02;38.15
70728;BME280;58314;47.722;17.652;2022-07-04T13:42:06;100417.72;;;33.54;35.65
70728;BME280;58314;47.722;17.652;2022-07-04T13:45:08;100417.63;;;34.18;34.75
70728;BME280;58314;47.722;17.652;2022-07-04T13:48:09;100416.41;;;35.67;29.61
70728;BME280;58314;47.722;17.652;2022-07-04T13:51:10;100416.03;;;34.91;29.33
70728;BME280;58314;47.722;17.652;2022-07-04T13:54:11;100412.03;;;33.87;32.30
70728;BME280;58314;47.722;17.652;2022-07-04T13:57:12;100405.41;;;33.95;31.54
70728;BME280;58314;47.722;17.652;2022-07-04T14:00:13;100412.00;;;32.85;33.40
70728;BME280;58314;47.722;17.652;2022-07-04T14:03:13;100414.66;;;32.40;35.16
70728;BME280;58314;47.722;17.652;2022-07-04T14:06:16;100415.56;;;32.14;33.85
70728;BME280;58314;47.722;17.652;2022-07-04T14:09:17;100395.75;;;31.58;34.25
70728;BME280;58314;47.722;17.652;2022-07-04T14:12:18;100389.31;;;31.04;35.50
70728;BME280;58314;47.722;17.652;2022-07-04T14:15:19;100391.31;;;30.40;37.56
70728;BME280;58314;47.722;17.652;2022-07-04T14:18:20;100397.06;;;30.52;37.97
70728;BME280;58314;47.722;17.652;2022-07-04T14:21:20;100386.13;;;30.17;37.06
70728;BME280;58314;47.722;17.652;2022-07-04T14:24:21;100385.66;;;30.42;37.60
70728;BME280;58314;47.722;17.652;2022-07-04T14:27:22;100377.09;;;30.52;37.90
70728;BME280;58314;47.722;17.652;2022-07-04T14:30:22;100378.88;;;30.31;37.36
70728;BME280;58314;47.722;17.652;2022-07-04T14:33:23;100376.41;;;30.43;39.22
70728;BME280;58314;47.722;17.652;2022-07-04T14:36:24;100377.16;;;30.30;37.86
70728;BME280;58314;47.722;17.652;2022-07-04T14:39:25;100356.69;;;29.78;39.12
70728;BME280;58314;47.722;17.652;2022-07-04T14:42:27;100365.69;;;29.35;40.14
70728;BME280;58314;47.722;17.652;2022-07-04T14:45:28;100351.13;;;29.43;40.89
70728;BME280;58314;47.722;17.652;2022-07-04T14:48:28;100349.16;;;29.37;40.77
70728;BME280;58314;47.722;17.652;2022-07-04T14:51:29;100355.69;;;29.42;41.70
70728;BME280;58314;47.722;17.652;2022-07-04T14:54:30;100353.41;;;29.67;40.84
70728;BME280;58314;47.722;17.652;2022-07-04T14:57:30;100359.28;;;29.43;40.99
70728;BME280;58314;47.722;17.652;2022-07-04T15:00:31;100352.06;;;29.57;41.00
70728;BME280;58314;47.722;17.652;2022-07-04T15:03:32;100357.19;;;29.23;41.65
70728;BME280;58314;47.722;17.652;2022-07-04T15:06:33;100350.28;;;29.06;42.62
70728;BME280;58314;47.722;17.652;2022-07-04T15:09:33;100344.31;;;28.96;43.07
70728;BME280;58314;47.722;17.652;2022-07-04T15:12:34;100342.00;;;28.92;41.97
70728;BME280;58314;47.722;17.652;2022-07-04T15:15:35;100348.25;;;28.71;43.11
70728;BME280;58314;47.722;17.652;2022-07-04T15:18:36;100348.31;;;28.48;43.43
70728;BME280;58314;47.722;17.652;2022-07-04T15:21:37;100349.28;;;28.55;42.74
70728;BME280;58314;47.722;17.652;2022-07-04T15:24:56;100352.56;;;28.66;42.16
70728;BME280;58314;47.722;17.652;2022-07-04T15:27:56;100348.44;;;28.70;42.01
70728;BME280;58314;47.722;17.652;2022-07-04T15:30:57;100345.38;;;28.80;41.51
70728;BME280;58314;47.722;17.652;2022-07-04T15:33:58;100338.56;;;28.69;41.74
70728;BME280;58314;47.722;17.652;2022-07-04T15:36:58;100333.38;;;28.74;42.92
70728;BME280;58314;47.722;17.652;2022-07-04T15:39:59;100332.56;;;28.59;44.17
70728;BME280;58314;47.722;17.652;2022-07-04T15:43:00;100331.91;;;28.42;44.91
70728;BME280;58314;47.722;17.652;2022-07-04T15:46:00;100329.50;;;28.32;45.30
70728;BME280;58314;47.722;17.652;2022-07-04T15:49:02;100319.81;;;28.29;45.33
70728;BME280;58314;47.722;17.652;2022-07-04T15:52:03;100325.44;;;28.28;46.86
70728;BME280;58314;47.722;17.652;2022-07-04T15:55:05;100313.59;;;27.91;46.90
70728;BME280;58314;47.722;17.652;2022-07-04T15:58:06;100315.56;;;27.82;46.96
70728;BME280;58314;47.722;17.652;2022-07-04T16:01:07;100309.13;;;27.83;47.33
70728;BME280;58314;47.722;17.652;2022-07-04T16:04:08;100300.97;;;27.83;48.59
70728;BME280;58314;47.722;17.652;2022-07-04T16:07:08;100302.19;;;28.10;45.84
70728;BME280;58314;47.722;17.652;2022-07-04T16:10:09;100302.19;;;28.10;46.81
70728;BME280;58314;47.722;17.652;2022-07-04T16:13:10;100297.09;;;27.77;46.55
70728;BME280;58314;47.722;17.652;2022-07-04T16:16:11;100292.34;;;27.79;46.67
70728;BME280;58314;47.722;17.652;2022-07-04T16:19:12;100289.50;;;27.73;48.31
70728;BME280;58314;47.722;17.652;2022-07-04T16:22:12;100281.91;;;27.68;48.39
70728;BME280;58314;47.722;17.652;2022-07-04T16:25:13;100283.97;;;27.66;46.40
70728;BME280;58314;47.722;17.652;2022-07-04T16:28:14;100282.41;;;28.02;46.54
70728;BME280;58314;47.722;17.652;2022-07-04T16:31:14;100277.91;;;28.24;45.34
70728;BME280;58314;47.722;17.652;2022-07-04T16:34:16;100275.00;;;28.25;46.25